createdAt,value
2022-11-21T00:01:26.467Z,99823.19
2022-11-21T00:03:52.807Z,99819.47
2022-11-21T00:06:19.519Z,99833.13
2022-11-21T00:08:46.382Z,99827.56
2022-11-21T00:11:12.871Z,99838.59
2022-11-21T00:13:39.339Z,99839.22
2022-11-21T00:16:06.715Z,99841.34
2022-11-21T00:18:34.560Z,99843.59
2022-11-21T00:21:05.506Z,99839.88
2022-11-21T00:23:31.870Z,99832.00
2022-11-21T00:25:58.189Z,99833.47
2022-11-21T00:28:24.524Z,99839.50
2022-11-21T00:30:50.917Z,99833.28
2022-11-21T00:33:17.457Z,99832.09
2022-11-21T00:35:43.790Z,99832.91
2022-11-21T00:38:10.162Z,99825.38
2022-11-21T00:40:36.505Z,99830.72
2022-11-21T00:43:02.807Z,99840.44
2022-11-21T00:45:29.080Z,99835.06
2022-11-21T00:47:55.577Z,99840.81
2022-11-21T00:50:21.853Z,99843.97
2022-11-21T00:52:48.199Z,99846.56
2022-11-21T00:55:14.614Z,99840.00
2022-11-21T00:57:40.886Z,99832.31
2022-11-21T01:00:07.553Z,99842.22
2022-11-21T01:02:33.958Z,99836.84
2022-11-21T01:05:00.290Z,99839.34
2022-11-21T01:07:26.636Z,99836.28
2022-11-21T01:09:53.015Z,99835.25
2022-11-21T01:12:19.361Z,99850.38
2022-11-21T01:14:45.715Z,99842.03
2022-11-21T01:17:11.995Z,99845.38
2022-11-21T01:19:38.262Z,99853.44
2022-11-21T01:22:04.543Z,99858.00
2022-11-21T01:24:30.819Z,99862.28
2022-11-21T01:26:57.111Z,99859.59
2022-11-21T01:29:23.446Z,99861.25
2022-11-21T01:31:49.982Z,99850.75
2022-11-21T01:34:16.747Z,99853.28
2022-11-21T01:36:43.097Z,99860.41
2022-11-21T01:39:10.612Z,99860.88
2022-11-21T01:41:41.474Z,99859.84
2022-11-21T01:44:25.321Z,99862.53
2022-11-21T01:46:52.558Z,99853.81
2022-11-21T01:49:24.456Z,99863.19
2022-11-21T01:52:02.725Z,99859.22
2022-11-21T01:54:31.586Z,99861.53
2022-11-21T01:57:04.247Z,99862.91
2022-11-21T01:59:39.755Z,99859.22
2022-11-21T02:02:08.200Z,99862.47
2022-11-21T02:04:35.081Z,99861.72
2022-11-21T02:07:02.871Z,99864.97
2022-11-21T02:09:31.548Z,99872.94
2022-11-21T02:11:59.893Z,99872.38
2022-11-21T02:14:27.456Z,99868.47
2022-11-21T02:16:56.866Z,99869.06
2022-11-21T02:19:35.944Z,99838.53
2022-11-21T02:22:07.235Z,99873.13
2022-11-21T02:24:45.670Z,99870.13
2022-11-21T02:27:12.221Z,99871.94
2022-11-21T02:29:39.785Z,99880.03
2022-11-21T02:32:06.378Z,99870.13
2022-11-21T02:34:33.034Z,99872.31
2022-11-21T02:37:00.108Z,99873.28
2022-11-21T02:39:30.385Z,99873.50
2022-11-21T02:42:04.655Z,99880.88
2022-11-21T02:44:39.910Z,99877.34
2022-11-21T02:47:06.344Z,99879.22
2022-11-21T02:49:49.184Z,99863.47
2022-11-21T02:52:15.546Z,99867.09
2022-11-21T02:54:42.710Z,99877.66
2022-11-21T02:57:09.103Z,99878.03
2022-11-21T02:59:35.490Z,99871.25
2022-11-21T03:02:02.152Z,99876.63
2022-11-21T03:04:29.237Z,99879.13
2022-11-21T03:06:55.852Z,99885.53
2022-11-21T03:09:22.203Z,99887.75
2022-11-21T03:11:48.564Z,99893.97
2022-11-21T03:14:15.081Z,99898.50
2022-11-21T03:16:41.378Z,99899.34
2022-11-21T03:19:07.719Z,99893.31
2022-11-21T03:21:34.118Z,99889.16
2022-11-21T03:24:00.434Z,99892.31
2022-11-21T03:26:26.767Z,99888.59
2022-11-21T03:28:53.093Z,99888.22
2022-11-21T03:31:19.355Z,99891.09
2022-11-21T03:33:45.655Z,99889.69
2022-11-21T03:36:11.999Z,99892.94
2022-11-21T03:38:38.333Z,99889.69
2022-11-21T03:41:05.950Z,99890.72
2022-11-21T03:43:32.306Z,99895.06
2022-11-21T03:45:58.579Z,99895.75
2022-11-21T03:48:24.872Z,99888.66
2022-11-21T03:50:51.232Z,99896.56
2022-11-21T03:53:17.557Z,99893.25
2022-11-21T03:55:43.929Z,99889.50
2022-11-21T03:58:10.199Z,99888.66
2022-11-21T04:00:36.541Z,99884.97
2022-11-21T04:03:03.128Z,99882.66
2022-11-21T04:05:29.473Z,99878.03
2022-11-21T04:07:55.734Z,99878.56
2022-11-21T04:10:22.137Z,99895.06
2022-11-21T04:12:48.399Z,99888.50
2022-11-21T04:15:14.813Z,99897.22
2022-11-21T04:17:41.240Z,99884.63
2022-11-21T04:20:07.816Z,99883.88
2022-11-21T04:22:34.134Z,99884.06
2022-11-21T04:25:00.378Z,99879.69
2022-11-21T04:27:26.649Z,99887.31
2022-11-21T04:29:52.940Z,99881.56
2022-11-21T04:32:19.294Z,99886.09
2022-11-21T04:34:45.685Z,99888.59
2022-11-21T04:37:12.207Z,99892.88
2022-11-21T04:39:38.566Z,99884.78
2022-11-21T04:42:04.977Z,99887.31
2022-11-21T04:44:31.257Z,99881.06
2022-11-21T04:47:02.340Z,99880.72
2022-11-21T04:49:31.214Z,99878.69
2022-11-21T04:51:57.458Z,99882.19
2022-11-21T04:54:23.706Z,99889.44
2022-11-21T04:56:50.375Z,99881.94
2022-11-21T04:59:16.603Z,99882.75
2022-11-21T05:01:42.939Z,99887.13
2022-11-21T05:04:09.295Z,99886.00
2022-11-21T05:06:35.610Z,99887.84
2022-11-21T05:09:01.879Z,99884.44
2022-11-21T05:11:46.855Z,99882.09
2022-11-21T05:14:13.176Z,99883.59
2022-11-21T05:16:39.494Z,99884.78
2022-11-21T05:19:05.779Z,99880.44
2022-11-21T05:21:32.044Z,99882.38
2022-11-21T05:23:58.458Z,99871.25
2022-11-21T05:26:24.821Z,99862.63
2022-11-21T05:28:51.100Z,99862.63
2022-11-21T05:31:17.459Z,99855.94
2022-11-21T05:33:43.709Z,99862.91
2022-11-21T05:36:10.309Z,99868.91
2022-11-21T05:38:36.614Z,99867.44
2022-11-21T05:41:02.942Z,99874.13
2022-11-21T05:43:47.688Z,99866.91
2022-11-21T05:46:15.437Z,99874.59
2022-11-21T05:48:41.835Z,99867.16
2022-11-21T05:51:08.417Z,99855.41
2022-11-21T05:53:35.556Z,99861.16
2022-11-21T05:56:03.539Z,99871.63
2022-11-21T05:58:30.093Z,99864.94
2022-11-21T06:00:59.962Z,99866.72
2022-11-21T06:03:27.209Z,99866.91
2022-11-21T06:06:02.743Z,99861.81
2022-11-21T06:08:31.455Z,99871.81
2022-11-21T06:10:57.913Z,99866.81
2022-11-21T06:13:24.267Z,99875.69
2022-11-21T06:16:09.378Z,99870.25
2022-11-21T06:18:36.918Z,99873.50
2022-11-21T06:21:04.683Z,99867.72
2022-11-21T06:23:31.478Z,99864.84
2022-11-21T06:25:58.530Z,99857.25
2022-11-21T06:28:25.530Z,99849.00
2022-11-21T06:30:52.047Z,99849.84
2022-11-21T06:33:18.603Z,99853.34
2022-11-21T06:35:45.140Z,99852.72
2022-11-21T06:38:13.487Z,99844.25
2022-11-21T06:40:40.419Z,99850.94
2022-11-21T06:43:06.763Z,99845.38
2022-11-21T06:45:33.917Z,99851.00
2022-11-21T06:48:01.536Z,99854.28
2022-11-21T06:50:28.629Z,99852.78
2022-11-21T06:52:56.982Z,99860.22
2022-11-21T06:55:23.545Z,99856.91
2022-11-21T06:57:49.995Z,99860.81
2022-11-21T07:00:16.634Z,99862.47
2022-11-21T07:02:42.898Z,99868.88
2022-11-21T07:05:09.251Z,99861.63
2022-11-21T07:07:35.728Z,99860.31
2022-11-21T07:10:02.098Z,99865.72
2022-11-21T07:12:47.342Z,99860.13
2022-11-21T07:15:13.951Z,99864.22
2022-11-21T07:17:40.228Z,99863.00
2022-11-21T07:20:06.760Z,99853.72
2022-11-21T07:22:33.105Z,99847.91
2022-11-21T07:24:59.423Z,99857.06
2022-11-21T07:27:25.828Z,99862.53
2022-11-21T07:29:52.205Z,99861.59
2022-11-21T07:32:18.483Z,99853.16
2022-11-21T07:34:44.827Z,99857.97
2022-11-21T07:37:11.106Z,99853.69
2022-11-21T07:39:37.464Z,99861.94
2022-11-21T07:42:03.872Z,99857.66
2022-11-21T07:44:30.160Z,99862.47
2022-11-21T07:46:56.525Z,99865.53
2022-11-21T07:49:23.008Z,99859.78
2022-11-21T07:51:49.508Z,99855.06
2022-11-21T07:54:15.934Z,99852.97
2022-11-21T07:56:42.397Z,99859.03
2022-11-21T07:59:08.845Z,99856.06
2022-11-21T08:01:35.301Z,99853.53
2022-11-21T08:04:01.656Z,99848.34
2022-11-21T08:06:27.936Z,99840.69
2022-11-21T08:08:54.482Z,99836.13
2022-11-21T08:11:21.024Z,99821.44
2022-11-21T08:13:47.552Z,99835.94
2022-11-21T08:16:13.983Z,99832.00
2022-11-21T08:18:40.326Z,99833.91
2022-11-21T08:21:06.716Z,99830.31
2022-11-21T08:23:33.190Z,99835.03
2022-11-21T08:25:59.621Z,99828.75
2022-11-21T08:28:25.967Z,99835.16
2022-11-21T08:30:52.456Z,99834.13
2022-11-21T08:33:18.846Z,99834.50
2022-11-21T08:35:45.186Z,99836.53
2022-11-21T08:38:11.519Z,99834.50
2022-11-21T08:40:37.857Z,99835.78
2022-11-21T08:43:05.533Z,99839.13
2022-11-21T08:45:32.142Z,99834.59
2022-11-21T08:47:58.542Z,99830.41
2022-11-21T08:50:25.169Z,99836.69
2022-11-21T08:52:52.076Z,99838.00
2022-11-21T08:55:20.395Z,99838.63
2022-11-21T08:57:46.785Z,99835.94
2022-11-21T09:00:13.559Z,99839.09
2022-11-21T09:02:40.002Z,99835.19
2022-11-21T09:05:06.623Z,99835.19
2022-11-21T09:07:33.043Z,99827.34
2022-11-21T09:09:59.430Z,99826.16
2022-11-21T09:12:25.782Z,99818.41
2022-11-21T09:15:11.081Z,99811.03
2022-11-21T09:17:56.278Z,99805.25
2022-11-21T09:20:22.799Z,99797.03
2022-11-21T09:22:49.417Z,99801.84
2022-11-21T09:25:16.318Z,99798.28
2022-11-21T09:27:42.670Z,99803.25
2022-11-21T09:30:09.289Z,99803.84
2022-11-21T09:32:36.905Z,99801.97
2022-11-21T09:35:03.625Z,99802.88
2022-11-21T09:37:30.080Z,99805.78
2022-11-21T09:39:56.408Z,99804.00
2022-11-21T12:35:54.228Z,99535.25
2022-11-21T12:38:44.581Z,99528.97
2022-11-21T12:41:31.373Z,99523.38
2022-11-21T12:44:26.989Z,99517.78
2022-11-21T12:46:53.734Z,99531.88
2022-11-21T12:49:38.940Z,99522.97
2022-11-21T12:52:25.234Z,99517.78
2022-11-21T12:55:21.081Z,99515.69
2022-11-21T12:58:05.156Z,99507.41
2022-11-21T13:00:40.783Z,99505.31
2022-11-21T13:03:16.380Z,99503.28
2022-11-21T13:05:47.064Z,99495.78
2022-11-21T13:08:19.972Z,99489.38
2022-11-21T13:11:22.292Z,99480.00
2022-11-21T13:13:50.596Z,99470.69
2022-11-21T13:16:37.757Z,99471.31
2022-11-21T13:19:23.204Z,99469.66
2022-11-21T13:21:50.584Z,99474.00
2022-11-21T13:24:36.034Z,99462.81
2022-11-21T13:27:02.472Z,99457.41
2022-11-21T13:29:29.187Z,99454.09
2022-11-21T13:31:55.808Z,99447.88
2022-11-21T13:34:31.403Z,99448.50
2022-11-21T13:36:58.144Z,99418.81
2022-11-21T13:39:29.804Z,99417.78
2022-11-21T13:42:25.770Z,99413.41
2022-11-21T13:44:52.516Z,99406.16
2022-11-21T13:47:25.580Z,99412.56
2022-11-21T13:50:08.663Z,99409.88
2022-11-21T13:52:43.897Z,99409.69
2022-11-21T13:55:19.712Z,99403.22
2022-11-21T13:57:52.030Z,99406.78
2022-11-21T14:00:32.229Z,99388.06
2022-11-21T14:03:11.041Z,99384.97
2022-11-21T14:05:47.784Z,99379.59
2022-11-21T14:08:19.800Z,99371.09
2022-11-21T14:10:50.412Z,99364.88
2022-11-21T14:13:27.839Z,99360.28
2022-11-21T14:16:08.713Z,99358.63
2022-11-21T14:18:41.049Z,99349.53
2022-11-21T14:21:17.382Z,99344.53
2022-11-21T14:23:45.324Z,99334.19
2022-11-21T14:26:14.356Z,99331.69
2022-11-21T14:28:40.838Z,99338.13
2022-11-21T14:31:12.404Z,99335.00
2022-11-21T14:33:39.922Z,99325.69
2022-11-21T14:36:20.484Z,99323.03
2022-11-21T14:39:20.884Z,99317.84
2022-11-21T14:41:41.668Z,99294.00
2022-11-21T14:44:08.130Z,99291.09
2022-11-21T14:46:35.784Z,99281.16
2022-11-21T14:49:11.054Z,99267.44
2022-11-21T14:51:37.517Z,99260.84
2022-11-21T14:54:04.142Z,99252.56
2022-11-21T14:56:43.233Z,99251.75
2022-11-21T14:59:29.726Z,99255.91
2022-11-21T15:02:10.006Z,99247.19
2022-11-21T15:04:40.288Z,99238.91
2022-11-21T15:07:37.634Z,99233.09
2022-11-21T15:13:04.536Z,99198.31
2022-11-21T15:15:48.599Z,99214.06
2022-11-21T15:18:30.912Z,99204.75
2022-11-21T15:21:19.707Z,99192.72
2022-11-21T15:24:03.470Z,99198.31
2022-11-21T15:26:31.248Z,99188.00
2022-11-21T15:29:23.778Z,99184.03
2022-11-21T15:32:17.486Z,99190.03
2022-11-21T15:35:04.775Z,99179.47
2022-11-21T15:37:48.199Z,99187.53
2022-11-21T15:40:19.924Z,99190.06
2022-11-21T15:42:46.943Z,99182.59
2022-11-21T15:45:20.347Z,99183.84
2022-11-21T15:47:47.364Z,99171.41
2022-11-21T15:50:21.672Z,99148.84
2022-11-21T15:52:49.049Z,99146.78
2022-11-21T15:55:22.572Z,99138.28
2022-11-21T15:58:04.816Z,99130.22
2022-11-21T16:35:40.643Z,99092.31
2022-11-21T16:38:11.588Z,99083.66
2022-11-21T16:40:40.951Z,99074.13
2022-11-21T16:43:11.409Z,99077.44
2022-11-21T16:45:39.187Z,99074.56
2022-11-21T16:48:06.038Z,99055.09
2022-11-21T16:50:34.553Z,99049.72
2022-11-21T16:53:01.588Z,99031.50
2022-11-21T16:59:18.215Z,99016.41
2022-11-21T17:04:59.197Z,98978.13
2022-11-21T17:08:11.730Z,98989.31
2022-11-21T17:10:38.457Z,98964.69
2022-11-21T17:13:05.051Z,98988.69
2022-11-21T17:15:37.376Z,99002.53
2022-11-21T17:18:03.870Z,98990.31
2022-11-21T17:23:35.388Z,98978.72
2022-11-21T17:26:13.198Z,98985.78
2022-11-21T17:28:45.293Z,98994.44
2022-11-21T17:31:18.586Z,98983.47
2022-11-21T17:33:56.731Z,98997.13
2022-11-21T17:36:25.370Z,99000.47
2022-11-21T17:39:24.100Z,98993.44
2022-11-21T17:42:18.021Z,98993.81
2022-11-21T19:22:09.679Z,98897.53
2022-11-21T19:24:36.092Z,98891.94
2022-11-21T19:27:05.964Z,98892.56
2022-11-21T19:29:33.099Z,98889.44
2022-11-21T19:31:59.503Z,98879.50
2022-11-21T19:34:25.941Z,98879.53
2022-11-21T19:36:53.017Z,98882.03
2022-11-21T19:39:19.401Z,98879.91
2022-11-21T19:41:50.352Z,98874.31
2022-11-21T19:44:18.019Z,98867.09
2022-11-21T19:46:48.035Z,98871.69
2022-11-21T19:49:16.583Z,98858.84
2022-11-21T19:51:43.162Z,98863.38
2022-11-21T19:54:11.208Z,98866.47
2022-11-21T19:56:37.726Z,98861.31
2022-11-21T19:59:04.761Z,98854.06
2022-11-21T20:01:32.851Z,98847.88
2022-11-21T20:04:03.561Z,98842.50
2022-11-21T20:06:31.213Z,98838.13
2022-11-21T20:09:04.559Z,98826.56
2022-11-21T20:11:31.654Z,98819.94
2022-11-21T20:13:59.402Z,98821.59
2022-11-21T20:16:28.329Z,98811.84
2022-11-21T20:18:57.644Z,98811.84
2022-11-21T20:21:32.334Z,98806.25
2022-11-21T20:24:00.025Z,98797.16
2022-11-21T20:26:29.060Z,98786.06
2022-11-21T20:28:55.573Z,98783.75
2022-11-21T20:31:27.562Z,98778.53
2022-11-21T20:36:40.191Z,98771.72
2022-11-21T20:39:12.810Z,98761.56
2022-11-21T20:41:53.555Z,98758.03
2022-11-21T20:47:10.165Z,98759.72
2022-11-21T20:49:39.913Z,98758.66
2022-11-21T20:54:53.006Z,98754.47
2022-11-21T20:57:19.549Z,98762.34
2022-11-21T20:59:46.033Z,98758.59
2022-11-21T21:02:14.315Z,98758.16
2022-11-21T21:04:41.703Z,98755.69
2022-11-21T21:07:08.262Z,98747.84
2022-11-21T21:09:34.789Z,98747.03
2022-11-21T21:12:03.729Z,98742.25
2022-11-21T21:14:30.403Z,98738.69
2022-11-21T21:16:57.177Z,98734.94
2022-11-21T21:19:23.909Z,98740.31
2022-11-21T21:21:50.604Z,98739.09
2022-11-21T21:24:17.468Z,98739.50
